sensor_id;sensor_type;location;lat;lon;timestamp;P1;durP1;ratioP1;P2;durP2;ratioP2
17854;SDS011;9053;53.358;6.382;2023-08-30T00:00:23;9.57;;;8.57;;
17854;SDS011;9053;53.358;6.382;2023-08-30T00:02:53;10.00;;;8.85;;
17854;SDS011;9053;53.358;6.382;2023-08-30T00:05:23;9.20;;;8.30;;
17854;SDS011;9053;53.358;6.382;2023-08-30T00:07:54;9.20;;;8.02;;
17854;SDS011;9053;53.358;6.382;2023-08-30T00:10:27;9.00;;;8.05;;
17854;SDS011;9053;53.358;6.382;2023-08-30T00:12:57;8.93;;;8.13;;
17854;SDS011;9053;53.358;6.382;2023-08-30T00:15:27;10.07;;;9.07;;
17854;SDS011;9053;53.358;6.382;2023-08-30T00:17:57;10.02;;;9.02;;
17854;SDS011;9053;53.358;6.382;2023-08-30T00:20:27;10.30;;;8.60;;
17854;SDS011;9053;53.358;6.382;2023-08-30T00:22:57;9.93;;;8.90;;
17854;SDS011;9053;53.358;6.382;2023-08-30T00:25:29;10.73;;;9.63;;
17854;SDS011;9053;53.358;6.382;2023-08-30T00:27:59;10.30;;;9.23;;
17854;SDS011;9053;53.358;6.382;2023-08-30T00:30:29;11.02;;;9.75;;
17854;SDS011;9053;53.358;6.382;2023-08-30T00:32:59;10.45;;;9.45;;
17854;SDS011;9053;53.358;6.382;2023-08-30T00:35:29;11.40;;;9.43;;
17854;SDS011;9053;53.358;6.382;2023-08-30T00:37:59;9.60;;;8.60;;
17854;SDS011;9053;53.358;6.382;2023-08-30T00:40:37;10.65;;;9.45;;
17854;SDS011;9053;53.358;6.382;2023-08-30T00:43:07;11.10;;;9.68;;
17854;SDS011;9053;53.358;6.382;2023-08-30T00:45:39;10.52;;;9.27;;
17854;SDS011;9053;53.358;6.382;2023-08-30T00:48:09;10.65;;;9.52;;
17854;SDS011;9053;53.358;6.382;2023-08-30T00:50:40;11.30;;;10.10;;
17854;SDS011;9053;53.358;6.382;2023-08-30T00:53:10;11.68;;;10.35;;
17854;SDS011;9053;53.358;6.382;2023-08-30T00:55:44;11.00;;;9.90;;
17854;SDS011;9053;53.358;6.382;2023-08-30T00:58:14;11.32;;;10.13;;
17854;SDS011;9053;53.358;6.382;2023-08-30T01:00:44;10.32;;;9.23;;
17854;SDS011;9053;53.358;6.382;2023-08-30T01:03:14;11.20;;;10.00;;
17854;SDS011;9053;53.358;6.382;2023-08-30T01:05:44;10.40;;;9.25;;
17854;SDS011;9053;53.358;6.382;2023-08-30T01:08:14;12.00;;;10.70;;
17854;SDS011;9053;53.358;6.382;2023-08-30T01:10:49;11.95;;;10.27;;
17854;SDS011;9053;53.358;6.382;2023-08-30T01:13:27;13.48;;;10.55;;
17854;SDS011;9053;53.358;6.382;2023-08-30T01:16:03;11.32;;;10.20;;
17854;SDS011;9053;53.358;6.382;2023-08-30T01:18:34;11.30;;;9.93;;
17854;SDS011;9053;53.358;6.382;2023-08-30T01:21:06;11.82;;;10.30;;
17854;SDS011;9053;53.358;6.382;2023-08-30T01:23:46;10.95;;;9.85;;
17854;SDS011;9053;53.358;6.382;2023-08-30T01:26:24;11.68;;;9.88;;
17854;SDS011;9053;53.358;6.382;2023-08-30T01:29:03;10.65;;;9.55;;
17854;SDS011;9053;53.358;6.382;2023-08-30T01:31:34;12.07;;;10.20;;
17854;SDS011;9053;53.358;6.382;2023-08-30T01:34:05;10.70;;;9.60;;
17854;SDS011;9053;53.358;6.382;2023-08-30T01:36:35;10.77;;;9.68;;
17854;SDS011;9053;53.358;6.382;2023-08-30T01:39:06;10.65;;;9.55;;
17854;SDS011;9053;53.358;6.382;2023-08-30T01:41:37;10.65;;;9.15;;
17854;SDS011;9053;53.358;6.382;2023-08-30T01:44:10;10.40;;;9.20;;
17854;SDS011;9053;53.358;6.382;2023-08-30T01:46:42;10.13;;;9.00;;
17854;SDS011;9053;53.358;6.382;2023-08-30T01:49:15;9.85;;;8.85;;
17854;SDS011;9053;53.358;6.382;2023-08-30T01:51:45;10.93;;;9.23;;
17854;SDS011;9053;53.358;6.382;2023-08-30T01:54:17;11.50;;;9.02;;
17854;SDS011;9053;53.358;6.382;2023-08-30T01:56:47;9.52;;;8.63;;
17854;SDS011;9053;53.358;6.382;2023-08-30T01:59:20;11.90;;;10.15;;
17854;SDS011;9053;53.358;6.382;2023-08-30T02:01:50;9.90;;;8.57;;
17854;SDS011;9053;53.358;6.382;2023-08-30T02:04:21;10.52;;;9.43;;
17854;SDS011;9053;53.358;6.382;2023-08-30T02:06:53;10.95;;;9.73;;
17854;SDS011;9053;53.358;6.382;2023-08-30T02:09:28;10.30;;;9.15;;
17854;SDS011;9053;53.358;6.382;2023-08-30T02:12:07;9.65;;;8.38;;
17854;SDS011;9053;53.358;6.382;2023-08-30T02:14:42;10.30;;;8.98;;
17854;SDS011;9053;53.358;6.382;2023-08-30T02:17:16;9.95;;;8.95;;
17854;SDS011;9053;53.358;6.382;2023-08-30T02:19:47;10.20;;;9.18;;
17854;SDS011;9053;53.358;6.382;2023-08-30T02:22:19;9.80;;;8.60;;
17854;SDS011;9053;53.358;6.382;2023-08-30T02:24:49;9.52;;;8.20;;
17854;SDS011;9053;53.358;6.382;2023-08-30T02:27:19;9.50;;;8.50;;
17854;SDS011;9053;53.358;6.382;2023-08-30T02:29:52;9.35;;;8.40;;
17854;SDS011;9053;53.358;6.382;2023-08-30T02:32:22;9.50;;;8.50;;
17854;SDS011;9053;53.358;6.382;2023-08-30T02:34:52;9.35;;;8.45;;
17854;SDS011;9053;53.358;6.382;2023-08-30T02:37:22;9.82;;;8.10;;
17854;SDS011;9053;53.358;6.382;2023-08-30T02:39:52;10.43;;;9.32;;
17854;SDS011;9053;53.358;6.382;2023-08-30T02:42:22;11.30;;;8.68;;
17854;SDS011;9053;53.358;6.382;2023-08-30T02:44:55;9.95;;;8.88;;
17854;SDS011;9053;53.358;6.382;2023-08-30T02:47:25;11.65;;;9.38;;
17854;SDS011;9053;53.358;6.382;2023-08-30T02:49:55;10.60;;;8.75;;
17854;SDS011;9053;53.358;6.382;2023-08-30T02:52:25;10.35;;;8.77;;
17854;SDS011;9053;53.358;6.382;2023-08-30T02:54:55;10.68;;;8.70;;
17854;SDS011;9053;53.358;6.382;2023-08-30T02:57:25;10.10;;;9.00;;
17854;SDS011;9053;53.358;6.382;2023-08-30T02:59:57;11.63;;;9.80;;
17854;SDS011;9053;53.358;6.382;2023-08-30T03:02:27;9.48;;;8.48;;
17854;SDS011;9053;53.358;6.382;2023-08-30T03:04:57;9.60;;;8.27;;
17854;SDS011;9053;53.358;6.382;2023-08-30T03:07:28;9.63;;;8.18;;
17854;SDS011;9053;53.358;6.382;2023-08-30T03:09:58;10.90;;;8.65;;
17854;SDS011;9053;53.358;6.382;2023-08-30T03:12:30;10.27;;;8.93;;
17854;SDS011;9053;53.358;6.382;2023-08-30T03:15:02;9.93;;;8.88;;
17854;SDS011;9053;53.358;6.382;2023-08-30T03:17:34;9.82;;;8.82;;
17854;SDS011;9053;53.358;6.382;2023-08-30T03:20:05;9.52;;;8.52;;
17854;SDS011;9053;53.358;6.382;2023-08-30T03:22:36;11.95;;;9.85;;
17854;SDS011;9053;53.358;6.382;2023-08-30T03:25:06;10.90;;;9.02;;
17854;SDS011;9053;53.358;6.382;2023-08-30T03:27:37;10.52;;;8.88;;
17854;SDS011;9053;53.358;6.382;2023-08-30T03:30:10;10.27;;;8.68;;
17854;SDS011;9053;53.358;6.382;2023-08-30T03:32:40;10.68;;;8.88;;
17854;SDS011;9053;53.358;6.382;2023-08-30T03:35:10;10.20;;;9.10;;
17854;SDS011;9053;53.358;6.382;2023-08-30T03:37:41;9.45;;;8.45;;
17854;SDS011;9053;53.358;6.382;2023-08-30T03:40:11;10.00;;;8.40;;
17854;SDS011;9053;53.358;6.382;2023-08-30T03:42:41;9.98;;;8.57;;
17854;SDS011;9053;53.358;6.382;2023-08-30T03:45:14;10.23;;;8.25;;
17854;SDS011;9053;53.358;6.382;2023-08-30T03:47:43;9.90;;;8.55;;
17854;SDS011;9053;53.358;6.382;2023-08-30T03:50:14;9.70;;;8.30;;
17854;SDS011;9053;53.358;6.382;2023-08-30T03:52:44;9.85;;;8.38;;
17854;SDS011;9053;53.358;6.382;2023-08-30T03:55:14;10.60;;;8.88;;
17854;SDS011;9053;53.358;6.382;2023-08-30T03:57:44;9.40;;;7.95;;
17854;SDS011;9053;53.358;6.382;2023-08-30T04:00:17;10.13;;;8.60;;
17854;SDS011;9053;53.358;6.382;2023-08-30T04:02:47;11.20;;;8.93;;
17854;SDS011;9053;53.358;6.382;2023-08-30T04:05:17;10.77;;;8.90;;
17854;SDS011;9053;53.358;6.382;2023-08-30T04:07:46;10.40;;;8.90;;
17854;SDS011;9053;53.358;6.382;2023-08-30T04:10:16;10.15;;;8.05;;
17854;SDS011;9053;53.358;6.382;2023-08-30T04:12:47;9.75;;;8.68;;
17854;SDS011;9053;53.358;6.382;2023-08-30T04:15:20;10.63;;;8.50;;
17854;SDS011;9053;53.358;6.382;2023-08-30T04:17:49;10.45;;;8.68;;
17854;SDS011;9053;53.358;6.382;2023-08-30T04:20:19;10.63;;;8.85;;
17854;SDS011;9053;53.358;6.382;2023-08-30T04:22:49;10.82;;;9.23;;
17854;SDS011;9053;53.358;6.382;2023-08-30T04:25:21;9.60;;;8.40;;
17854;SDS011;9053;53.358;6.382;2023-08-30T04:27:51;10.05;;;8.23;;
17854;SDS011;9053;53.358;6.382;2023-08-30T04:30:24;10.05;;;8.43;;
17854;SDS011;9053;53.358;6.382;2023-08-30T04:32:54;10.60;;;8.90;;
17854;SDS011;9053;53.358;6.382;2023-08-30T04:35:24;12.50;;;9.75;;
17854;SDS011;9053;53.358;6.382;2023-08-30T04:37:57;11.63;;;9.57;;
17854;SDS011;9053;53.358;6.382;2023-08-30T04:40:27;10.50;;;8.77;;
17854;SDS011;9053;53.358;6.382;2023-08-30T04:42:58;10.65;;;8.68;;
17854;SDS011;9053;53.358;6.382;2023-08-30T04:45:31;11.07;;;8.65;;
17854;SDS011;9053;53.358;6.382;2023-08-30T04:48:03;10.70;;;8.88;;
17854;SDS011;9053;53.358;6.382;2023-08-30T04:50:35;12.57;;;9.88;;
17854;SDS011;9053;53.358;6.382;2023-08-30T04:53:05;12.48;;;9.25;;
17854;SDS011;9053;53.358;6.382;2023-08-30T04:55:35;12.27;;;10.30;;
17854;SDS011;9053;53.358;6.382;2023-08-30T04:58:05;11.68;;;9.38;;
17854;SDS011;9053;53.358;6.382;2023-08-30T05:00:38;13.45;;;10.65;;
17854;SDS011;9053;53.358;6.382;2023-08-30T05:03:08;11.80;;;8.88;;
17854;SDS011;9053;53.358;6.382;2023-08-30T05:05:38;11.43;;;9.20;;
17854;SDS011;9053;53.358;6.382;2023-08-30T05:08:08;11.50;;;9.48;;
17854;SDS011;9053;53.358;6.382;2023-08-30T05:10:38;11.18;;;8.90;;
17854;SDS011;9053;53.358;6.382;2023-08-30T05:13:09;12.40;;;9.95;;
17854;SDS011;9053;53.358;6.382;2023-08-30T05:15:42;12.07;;;9.50;;
17854;SDS011;9053;53.358;6.382;2023-08-30T05:18:12;10.65;;;8.57;;
17854;SDS011;9053;53.358;6.382;2023-08-30T05:20:43;11.77;;;9.25;;
17854;SDS011;9053;53.358;6.382;2023-08-30T05:23:13;11.13;;;9.35;;
17854;SDS011;9053;53.358;6.382;2023-08-30T05:25:42;9.65;;;8.43;;
17854;SDS011;9053;53.358;6.382;2023-08-30T05:28:13;10.98;;;8.88;;
17854;SDS011;9053;53.358;6.382;2023-08-30T05:30:46;10.32;;;8.45;;
17854;SDS011;9053;53.358;6.382;2023-08-30T05:33:16;11.85;;;9.32;;
17854;SDS011;9053;53.358;6.382;2023-08-30T05:35:46;10.70;;;9.00;;
17854;SDS011;9053;53.358;6.382;2023-08-30T05:38:16;11.75;;;9.57;;
17854;SDS011;9053;53.358;6.382;2023-08-30T05:40:46;9.95;;;8.50;;
17854;SDS011;9053;53.358;6.382;2023-08-30T05:43:15;12.35;;;9.05;;
17854;SDS011;9053;53.358;6.382;2023-08-30T05:45:48;11.50;;;9.35;;
17854;SDS011;9053;53.358;6.382;2023-08-30T05:48:18;10.88;;;8.88;;
17854;SDS011;9053;53.358;6.382;2023-08-30T05:50:48;10.38;;;9.15;;
17854;SDS011;9053;53.358;6.382;2023-08-30T05:53:17;11.18;;;9.18;;
17854;SDS011;9053;53.358;6.382;2023-08-30T05:55:47;11.23;;;9.23;;
17854;SDS011;9053;53.358;6.382;2023-08-30T05:58:17;11.30;;;9.45;;
17854;SDS011;9053;53.358;6.382;2023-08-30T06:00:50;10.57;;;8.98;;
17854;SDS011;9053;53.358;6.382;2023-08-30T06:03:20;9.48;;;7.82;;
17854;SDS011;9053;53.358;6.382;2023-08-30T06:05:50;9.38;;;7.82;;
17854;SDS011;9053;53.358;6.382;2023-08-30T06:08:20;10.68;;;8.20;;
17854;SDS011;9053;53.358;6.382;2023-08-30T06:10:50;12.43;;;8.98;;
17854;SDS011;9053;53.358;6.382;2023-08-30T06:13:20;11.93;;;9.13;;
17854;SDS011;9053;53.358;6.382;2023-08-30T06:15:53;11.20;;;8.68;;
17854;SDS011;9053;53.358;6.382;2023-08-30T06:18:23;12.65;;;9.52;;
17854;SDS011;9053;53.358;6.382;2023-08-30T06:20:52;12.13;;;8.68;;
17854;SDS011;9053;53.358;6.382;2023-08-30T06:23:22;10.60;;;8.35;;
17854;SDS011;9053;53.358;6.382;2023-08-30T06:25:55;11.00;;;8.20;;
17854;SDS011;9053;53.358;6.382;2023-08-30T06:28:26;13.20;;;8.73;;
17854;SDS011;9053;53.358;6.382;2023-08-30T06:30:58;12.27;;;9.40;;
17854;SDS011;9053;53.358;6.382;2023-08-30T06:33:29;9.27;;;7.88;;
17854;SDS011;9053;53.358;6.382;2023-08-30T06:35:58;12.18;;;9.15;;
17854;SDS011;9053;53.358;6.382;2023-08-30T06:38:28;11.40;;;8.82;;
17854;SDS011;9053;53.358;6.382;2023-08-30T06:40:58;9.52;;;8.02;;
17854;SDS011;9053;53.358;6.382;2023-08-30T06:43:28;11.10;;;8.25;;
17854;SDS011;9053;53.358;6.382;2023-08-30T06:46:01;13.02;;;9.40;;
17854;SDS011;9053;53.358;6.382;2023-08-30T06:48:31;11.90;;;8.45;;
17854;SDS011;9053;53.358;6.382;2023-08-30T06:51:00;12.05;;;8.23;;
17854;SDS011;9053;53.358;6.382;2023-08-30T06:53:30;11.80;;;8.32;;
17854;SDS011;9053;53.358;6.382;2023-08-30T06:56:00;9.95;;;7.63;;
17854;SDS011;9053;53.358;6.382;2023-08-30T06:58:30;12.18;;;8.90;;
17854;SDS011;9053;53.358;6.382;2023-08-30T07:01:03;12.20;;;9.02;;
17854;SDS011;9053;53.358;6.382;2023-08-30T07:03:33;9.95;;;7.85;;
17854;SDS011;9053;53.358;6.382;2023-08-30T07:06:03;10.05;;;8.15;;
17854;SDS011;9053;53.358;6.382;2023-08-30T07:08:33;13.88;;;9.55;;
17854;SDS011;9053;53.358;6.382;2023-08-30T07:11:02;11.05;;;8.45;;
17854;SDS011;9053;53.358;6.382;2023-08-30T07:13:42;12.18;;;9.27;;
17854;SDS011;9053;53.358;6.382;2023-08-30T07:16:15;11.40;;;8.93;;
17854;SDS011;9053;53.358;6.382;2023-08-30T07:18:44;11.23;;;8.65;;
17854;SDS011;9053;53.358;6.382;2023-08-30T07:21:14;11.93;;;8.38;;
17854;SDS011;9053;53.358;6.382;2023-08-30T07:23:44;10.27;;;8.07;;
17854;SDS011;9053;53.358;6.382;2023-08-30T07:26:14;13.02;;;9.18;;
17854;SDS011;9053;53.358;6.382;2023-08-30T07:28:44;11.25;;;9.07;;
17854;SDS011;9053;53.358;6.382;2023-08-30T07:31:17;13.25;;;9.93;;
17854;SDS011;9053;53.358;6.382;2023-08-30T07:33:48;9.55;;;7.72;;
17854;SDS011;9053;53.358;6.382;2023-08-30T07:36:18;9.68;;;7.63;;
17854;SDS011;9053;53.358;6.382;2023-08-30T07:39:03;10.70;;;7.30;;
17854;SDS011;9053;53.358;6.382;2023-08-30T07:41:33;8.30;;;6.53;;
17854;SDS011;9053;53.358;6.382;2023-08-30T07:44:03;9.20;;;6.93;;
17854;SDS011;9053;53.358;6.382;2023-08-30T07:46:36;8.40;;;7.28;;
17854;SDS011;9053;53.358;6.382;2023-08-30T07:49:06;10.82;;;7.88;;
17854;SDS011;9053;53.358;6.382;2023-08-30T07:51:36;9.45;;;7.00;;
17854;SDS011;9053;53.358;6.382;2023-08-30T07:54:06;7.18;;;6.03;;
17854;SDS011;9053;53.358;6.382;2023-08-30T07:56:36;9.70;;;7.20;;
17854;SDS011;9053;53.358;6.382;2023-08-30T07:59:06;8.88;;;6.75;;
17854;SDS011;9053;53.358;6.382;2023-08-30T08:01:40;9.65;;;6.88;;
17854;SDS011;9053;53.358;6.382;2023-08-30T08:04:10;8.50;;;6.25;;
17854;SDS011;9053;53.358;6.382;2023-08-30T08:06:40;9.10;;;6.65;;
17854;SDS011;9053;53.358;6.382;2023-08-30T08:09:22;8.73;;;6.68;;
17854;SDS011;9053;53.358;6.382;2023-08-30T08:11:53;9.30;;;6.90;;
17854;SDS011;9053;53.358;6.382;2023-08-30T08:14:23;8.57;;;6.68;;
17854;SDS011;9053;53.358;6.382;2023-08-30T08:16:56;8.60;;;6.53;;
17854;SDS011;9053;53.358;6.382;2023-08-30T08:19:26;8.77;;;6.32;;
17854;SDS011;9053;53.358;6.382;2023-08-30T08:21:55;7.18;;;5.45;;
17854;SDS011;9053;53.358;6.382;2023-08-30T08:24:25;7.78;;;5.82;;
17854;SDS011;9053;53.358;6.382;2023-08-30T08:26:55;8.23;;;6.22;;
17854;SDS011;9053;53.358;6.382;2023-08-30T08:29:26;6.88;;;5.70;;
17854;SDS011;9053;53.358;6.382;2023-08-30T08:31:59;7.97;;;6.05;;
17854;SDS011;9053;53.358;6.382;2023-08-30T08:34:29;9.40;;;7.15;;
17854;SDS011;9053;53.358;6.382;2023-08-30T08:36:59;10.23;;;7.35;;
17854;SDS011;9053;53.358;6.382;2023-08-30T08:39:30;9.73;;;7.68;;
17854;SDS011;9053;53.358;6.382;2023-08-30T08:42:00;7.60;;;5.70;;
17854;SDS011;9053;53.358;6.382;2023-08-30T08:44:31;8.77;;;6.47;;
17854;SDS011;9053;53.358;6.382;2023-08-30T08:47:04;10.20;;;6.68;;
17854;SDS011;9053;53.358;6.382;2023-08-30T08:49:34;7.95;;;6.05;;
17854;SDS011;9053;53.358;6.382;2023-08-30T08:52:04;9.15;;;6.07;;
17854;SDS011;9053;53.358;6.382;2023-08-30T08:54:54;8.70;;;5.68;;
17854;SDS011;9053;53.358;6.382;2023-08-30T08:57:26;7.90;;;5.55;;
17854;SDS011;9053;53.358;6.382;2023-08-30T08:59:58;9.95;;;6.63;;
17854;SDS011;9053;53.358;6.382;2023-08-30T09:02:31;6.63;;;5.43;;
17854;SDS011;9053;53.358;6.382;2023-08-30T09:05:01;9.73;;;5.78;;
17854;SDS011;9053;53.358;6.382;2023-08-30T09:07:32;9.13;;;6.07;;
17854;SDS011;9053;53.358;6.382;2023-08-30T09:10:02;8.50;;;5.63;;
17854;SDS011;9053;53.358;6.382;2023-08-30T09:12:33;10.05;;;6.10;;
17854;SDS011;9053;53.358;6.382;2023-08-30T09:15:05;9.10;;;6.65;;
17854;SDS011;9053;53.358;6.382;2023-08-30T09:17:38;8.98;;;6.65;;
17854;SDS011;9053;53.358;6.382;2023-08-30T09:20:09;8.52;;;6.38;;
17854;SDS011;9053;53.358;6.382;2023-08-30T09:22:41;8.10;;;5.78;;
17854;SDS011;9053;53.358;6.382;2023-08-30T09:25:22;10.43;;;7.63;;
17854;SDS011;9053;53.358;6.382;2023-08-30T09:27:56;9.10;;;6.97;;
17854;SDS011;9053;53.358;6.382;2023-08-30T09:30:27;9.25;;;7.15;;
17854;SDS011;9053;53.358;6.382;2023-08-30T09:33:04;8.93;;;6.00;;
17854;SDS011;9053;53.358;6.382;2023-08-30T09:35:39;9.00;;;6.47;;
17854;SDS011;9053;53.358;6.382;2023-08-30T09:38:17;9.23;;;6.32;;
17854;SDS011;9053;53.358;6.382;2023-08-30T09:40:47;10.65;;;7.22;;
17854;SDS011;9053;53.358;6.382;2023-08-30T09:43:18;9.02;;;6.50;;
17854;SDS011;9053;53.358;6.382;2023-08-30T09:45:48;8.02;;;6.22;;
17854;SDS011;9053;53.358;6.382;2023-08-30T09:48:23;9.18;;;6.15;;
17854;SDS011;9053;53.358;6.382;2023-08-30T09:50:57;9.13;;;6.65;;
17854;SDS011;9053;53.358;6.382;2023-08-30T09:53:28;8.95;;;6.93;;
17854;SDS011;9053;53.358;6.382;2023-08-30T09:56:11;7.95;;;6.18;;
17854;SDS011;9053;53.358;6.382;2023-08-30T09:58:42;7.82;;;6.80;;
17854;SDS011;9053;53.358;6.382;2023-08-30T10:01:12;10.90;;;7.50;;
17854;SDS011;9053;53.358;6.382;2023-08-30T10:03:46;10.52;;;8.45;;
17854;SDS011;9053;53.358;6.382;2023-08-30T10:06:16;9.73;;;7.40;;
17854;SDS011;9053;53.358;6.382;2023-08-30T10:08:48;11.05;;;8.00;;
17854;SDS011;9053;53.358;6.382;2023-08-30T10:11:21;9.90;;;7.30;;
17854;SDS011;9053;53.358;6.382;2023-08-30T10:13:51;9.10;;;7.03;;
17854;SDS011;9053;53.358;6.382;2023-08-30T10:16:22;10.10;;;7.00;;
17854;SDS011;9053;53.358;6.382;2023-08-30T10:18:59;9.15;;;7.18;;
17854;SDS011;9053;53.358;6.382;2023-08-30T10:21:34;7.63;;;6.40;;
17854;SDS011;9053;53.358;6.382;2023-08-30T10:24:06;9.75;;;7.05;;
17854;SDS011;9053;53.358;6.382;2023-08-30T10:26:56;7.45;;;6.13;;
17854;SDS011;9053;53.358;6.382;2023-08-30T10:29:28;10.60;;;7.20;;
17854;SDS011;9053;53.358;6.382;2023-08-30T10:32:01;9.52;;;7.72;;
17854;SDS011;9053;53.358;6.382;2023-08-30T10:34:35;7.18;;;5.65;;
17854;SDS011;9053;53.358;6.382;2023-08-30T10:37:06;7.57;;;5.22;;
17854;SDS011;9053;53.358;6.382;2023-08-30T10:39:38;6.70;;;5.30;;
17854;SDS011;9053;53.358;6.382;2023-08-30T10:42:09;10.82;;;7.70;;
17854;SDS011;9053;53.358;6.382;2023-08-30T10:44:48;9.57;;;7.05;;
17854;SDS011;9053;53.358;6.382;2023-08-30T10:47:39;9.32;;;6.10;;
17854;SDS011;9053;53.358;6.382;2023-08-30T10:50:12;7.60;;;6.05;;
17854;SDS011;9053;53.358;6.382;2023-08-30T10:52:43;8.85;;;6.47;;
17854;SDS011;9053;53.358;6.382;2023-08-30T10:55:24;10.70;;;6.60;;
17854;SDS011;9053;53.358;6.382;2023-08-30T10:57:58;9.40;;;6.63;;
17854;SDS011;9053;53.358;6.382;2023-08-30T11:00:29;9.90;;;7.00;;
17854;SDS011;9053;53.358;6.382;2023-08-30T11:03:00;10.52;;;7.95;;
17854;SDS011;9053;53.358;6.382;2023-08-30T11:05:33;8.32;;;6.50;;
17854;SDS011;9053;53.358;6.382;2023-08-30T11:08:03;8.15;;;6.55;;
17854;SDS011;9053;53.358;6.382;2023-08-30T11:10:39;8.75;;;6.72;;
17854;SDS011;9053;53.358;6.382;2023-08-30T11:13:09;9.27;;;7.85;;
17854;SDS011;9053;53.358;6.382;2023-08-30T11:15:40;8.82;;;7.35;;
17854;SDS011;9053;53.358;6.382;2023-08-30T11:18:09;8.30;;;6.50;;
17854;SDS011;9053;53.358;6.382;2023-08-30T11:20:42;8.38;;;7.07;;
17854;SDS011;9053;53.358;6.382;2023-08-30T11:23:12;9.13;;;7.05;;
17854;SDS011;9053;53.358;6.382;2023-08-30T11:25:42;8.50;;;7.18;;
17854;SDS011;9053;53.358;6.382;2023-08-30T11:28:12;10.23;;;7.35;;
17854;SDS011;9053;53.358;6.382;2023-08-30T11:30:42;8.18;;;5.63;;
17854;SDS011;9053;53.358;6.382;2023-08-30T11:33:11;8.98;;;7.50;;
17854;SDS011;9053;53.358;6.382;2023-08-30T11:35:44;8.60;;;6.50;;
17854;SDS011;9053;53.358;6.382;2023-08-30T11:38:18;8.25;;;6.43;;
17854;SDS011;9053;53.358;6.382;2023-08-30T11:40:49;7.05;;;5.95;;
17854;SDS011;9053;53.358;6.382;2023-08-30T11:43:20;6.20;;;5.45;;
17854;SDS011;9053;53.358;6.382;2023-08-30T11:45:55;6.55;;;5.53;;
17854;SDS011;9053;53.358;6.382;2023-08-30T11:48:25;7.10;;;5.50;;
17854;SDS011;9053;53.358;6.382;2023-08-30T11:50:58;7.28;;;5.88;;
17854;SDS011;9053;53.358;6.382;2023-08-30T11:53:29;7.10;;;5.63;;
17854;SDS011;9053;53.358;6.382;2023-08-30T11:55:59;6.25;;;5.32;;
17854;SDS011;9053;53.358;6.382;2023-08-30T11:58:31;6.82;;;5.18;;
17854;SDS011;9053;53.358;6.382;2023-08-30T12:01:02;5.10;;;4.60;;
17854;SDS011;9053;53.358;6.382;2023-08-30T12:03:32;6.57;;;4.72;;
17854;SDS011;9053;53.358;6.382;2023-08-30T12:06:08;6.07;;;4.50;;
17854;SDS011;9053;53.358;6.382;2023-08-30T12:08:39;5.78;;;4.88;;
17854;SDS011;9053;53.358;6.382;2023-08-30T12:11:17;7.63;;;6.30;;
17854;SDS011;9053;53.358;6.382;2023-08-30T12:13:47;6.32;;;5.30;;
17854;SDS011;9053;53.358;6.382;2023-08-30T12:16:17;7.30;;;5.75;;
17854;SDS011;9053;53.358;6.382;2023-08-30T12:18:47;6.72;;;5.50;;
17854;SDS011;9053;53.358;6.382;2023-08-30T12:21:20;6.80;;;4.97;;
17854;SDS011;9053;53.358;6.382;2023-08-30T12:23:59;6.97;;;5.30;;
17854;SDS011;9053;53.358;6.382;2023-08-30T12:26:32;6.85;;;5.60;;
17854;SDS011;9053;53.358;6.382;2023-08-30T12:29:04;6.97;;;5.82;;
17854;SDS011;9053;53.358;6.382;2023-08-30T12:31:35;6.57;;;5.32;;
17854;SDS011;9053;53.358;6.382;2023-08-30T12:34:05;6.38;;;5.32;;
17854;SDS011;9053;53.358;6.382;2023-08-30T12:36:38;6.50;;;5.18;;
17854;SDS011;9053;53.358;6.382;2023-08-30T12:39:08;7.57;;;5.65;;
17854;SDS011;9053;53.358;6.382;2023-08-30T12:41:38;7.85;;;6.90;;
17854;SDS011;9053;53.358;6.382;2023-08-30T12:44:09;7.53;;;5.55;;
17854;SDS011;9053;53.358;6.382;2023-08-30T12:46:39;7.30;;;5.53;;
17854;SDS011;9053;53.358;6.382;2023-08-30T12:49:09;7.05;;;4.93;;
17854;SDS011;9053;53.358;6.382;2023-08-30T12:51:42;6.47;;;5.20;;
17854;SDS011;9053;53.358;6.382;2023-08-30T12:54:12;7.38;;;5.68;;
17854;SDS011;9053;53.358;6.382;2023-08-30T12:56:42;6.45;;;5.25;;
17854;SDS011;9053;53.358;6.382;2023-08-30T12:59:12;6.10;;;4.90;;
17854;SDS011;9053;53.358;6.382;2023-08-30T13:01:42;6.53;;;5.30;;
17854;SDS011;9053;53.358;6.382;2023-08-30T13:04:12;9.07;;;5.97;;
17854;SDS011;9053;53.358;6.382;2023-08-30T13:06:45;6.57;;;5.57;;
17854;SDS011;9053;53.358;6.382;2023-08-30T13:09:15;7.00;;;5.40;;
17854;SDS011;9053;53.358;6.382;2023-08-30T13:11:47;7.80;;;6.05;;
17854;SDS011;9053;53.358;6.382;2023-08-30T13:14:16;8.80;;;6.00;;
17854;SDS011;9053;53.358;6.382;2023-08-30T13:16:49;7.63;;;5.72;;
17854;SDS011;9053;53.358;6.382;2023-08-30T13:19:19;8.40;;;5.95;;
17854;SDS011;9053;53.358;6.382;2023-08-30T13:21:54;7.22;;;5.93;;
17854;SDS011;9053;53.358;6.382;2023-08-30T13:24:24;8.82;;;6.10;;
17854;SDS011;9053;53.358;6.382;2023-08-30T13:26:54;6.95;;;5.30;;
17854;SDS011;9053;53.358;6.382;2023-08-30T13:29:24;6.70;;;5.72;;
17854;SDS011;9053;53.358;6.382;2023-08-30T13:31:54;6.53;;;5.20;;
17854;SDS011;9053;53.358;6.382;2023-08-30T13:34:26;7.40;;;5.50;;
17854;SDS011;9053;53.358;6.382;2023-08-30T13:37:01;7.15;;;5.30;;
17854;SDS011;9053;53.358;6.382;2023-08-30T13:39:52;6.47;;;5.20;;
17854;SDS011;9053;53.358;6.382;2023-08-30T13:42:22;6.65;;;5.50;;
17854;SDS011;9053;53.358;6.382;2023-08-30T13:44:52;6.97;;;5.70;;
17854;SDS011;9053;53.358;6.382;2023-08-30T13:47:23;6.05;;;5.07;;
17854;SDS011;9053;53.358;6.382;2023-08-30T13:49:53;7.40;;;5.82;;
17854;SDS011;9053;53.358;6.382;2023-08-30T13:52:26;7.70;;;6.07;;
17854;SDS011;9053;53.358;6.382;2023-08-30T13:54:57;7.65;;;5.97;;
17854;SDS011;9053;53.358;6.382;2023-08-30T13:57:27;7.70;;;6.32;;
17854;SDS011;9053;53.358;6.382;2023-08-30T13:59:57;8.70;;;6.32;;
17854;SDS011;9053;53.358;6.382;2023-08-30T14:02:29;7.50;;;6.50;;
17854;SDS011;9053;53.358;6.382;2023-08-30T14:04:59;7.55;;;6.47;;
17854;SDS011;9053;53.358;6.382;2023-08-30T14:07:34;6.72;;;5.95;;
17854;SDS011;9053;53.358;6.382;2023-08-30T14:10:04;6.60;;;5.60;;
17854;SDS011;9053;53.358;6.382;2023-08-30T14:12:35;6.68;;;5.78;;
17854;SDS011;9053;53.358;6.382;2023-08-30T14:15:05;9.00;;;6.93;;
17854;SDS011;9053;53.358;6.382;2023-08-30T14:17:35;7.75;;;6.15;;
17854;SDS011;9053;53.358;6.382;2023-08-30T14:20:06;7.30;;;6.30;;
17854;SDS011;9053;53.358;6.382;2023-08-30T14:22:40;7.75;;;5.93;;
17854;SDS011;9053;53.358;6.382;2023-08-30T14:25:10;7.03;;;5.80;;
17854;SDS011;9053;53.358;6.382;2023-08-30T14:27:40;8.32;;;6.30;;
17854;SDS011;9053;53.358;6.382;2023-08-30T14:30:10;6.43;;;5.45;;
17854;SDS011;9053;53.358;6.382;2023-08-30T14:32:41;5.57;;;4.90;;
17854;SDS011;9053;53.358;6.382;2023-08-30T14:35:10;6.22;;;5.43;;
17854;SDS011;9053;53.358;6.382;2023-08-30T14:37:43;6.40;;;5.45;;
17854;SDS011;9053;53.358;6.382;2023-08-30T14:40:13;5.90;;;5.22;;
17854;SDS011;9053;53.358;6.382;2023-08-30T14:42:43;6.63;;;5.40;;
17854;SDS011;9053;53.358;6.382;2023-08-30T14:45:13;6.70;;;6.05;;
17854;SDS011;9053;53.358;6.382;2023-08-30T14:47:44;6.80;;;5.38;;
17854;SDS011;9053;53.358;6.382;2023-08-30T14:50:13;9.20;;;7.38;;
17854;SDS011;9053;53.358;6.382;2023-08-30T14:52:46;6.75;;;6.10;;
17854;SDS011;9053;53.358;6.382;2023-08-30T14:55:17;6.82;;;5.80;;
17854;SDS011;9053;53.358;6.382;2023-08-30T14:57:47;6.47;;;5.78;;
17854;SDS011;9053;53.358;6.382;2023-08-30T15:00:17;6.00;;;5.40;;
17854;SDS011;9053;53.358;6.382;2023-08-30T15:02:47;6.47;;;5.68;;
17854;SDS011;9053;53.358;6.382;2023-08-30T15:05:17;6.60;;;6.00;;
17854;SDS011;9053;53.358;6.382;2023-08-30T15:07:50;7.53;;;6.03;;
17854;SDS011;9053;53.358;6.382;2023-08-30T15:10:20;6.90;;;5.90;;
17854;SDS011;9053;53.358;6.382;2023-08-30T15:12:50;5.78;;;5.18;;
17854;SDS011;9053;53.358;6.382;2023-08-30T15:15:20;6.18;;;5.57;;
17854;SDS011;9053;53.358;6.382;2023-08-30T15:17:50;7.90;;;5.70;;
17854;SDS011;9053;53.358;6.382;2023-08-30T15:20:20;5.75;;;5.15;;